Time;durP1;ratioP1;P1;durP2;ratioP2;P2;SDS_P1;SDS_P2;PMS_P1;PMS_P2;Temp;Humidity;BMP_temperature;BMP_pressure;BME280_temperature;BME280_humidity;BME280_pressure;Samples;Min_cycle;Max_cycle;Signal;HPM_P1;HPM_P2
2023/07/31 00:01:23;;;;;;;1.70;0.75;;;;;;;;;;5089818;28;20116;-69
2023/07/31 00:03:49;;;;;;;1.15;0.43;;;;;;;;;;5093383;28;20067;-69
2023/07/31 00:06:14;;;;;;;1.00;0.55;;;;;;;;;;5093213;28;20068;-69
2023/07/31 00:08:39;;;;;;;1.30;0.50;;;;;;;;;;5093586;28;20040;-69
2023/07/31 00:11:05;;;;;;;2.63;0.50;;;;;;;;;;5091587;28;20032;-69
2023/07/31 00:13:30;;;;;;;1.35;0.60;;;;;;;;;;5092415;28;20054;-70
2023/07/31 00:15:55;;;;;;;5.00;0.68;;;;;;;;;;5091424;28;20094;-70
2023/07/31 00:18:21;;;;;;;0.80;0.50;;;;;;;;;;5073258;28;20043;-69
2023/07/31 00:20:46;;;;;;;5.13;0.60;;;;;;;;;;5071282;28;20047;-69
2023/07/31 00:23:12;;;;;;;1.30;0.63;;;;;;;;;;5094738;28;20043;-69
2023/07/31 00:25:37;;;;;;;0.68;0.40;;;;;;;;;;5096078;28;20448;-70
2023/07/31 00:28:02;;;;;;;0.63;0.35;;;;;;;;;;5097252;28;20475;-69
2023/07/31 00:30:28;;;;;;;0.63;0.30;;;;;;;;;;5097051;28;20442;-69
2023/07/31 00:32:53;;;;;;;0.52;0.40;;;;;;;;;;5095057;28;20114;-69
2023/07/31 00:35:18;;;;;;;2.05;0.68;;;;;;;;;;5097042;28;20107;-69
2023/07/31 00:37:44;;;;;;;0.73;0.40;;;;;;;;;;5096877;28;20036;-70
2023/07/31 00:40:09;;;;;;;0.93;0.38;;;;;;;;;;5096546;28;20101;-69
2023/07/31 00:42:34;;;;;;;0.70;0.32;;;;;;;;;;5096700;28;20047;-69
2023/07/31 00:45:00;;;;;;;0.30;0.30;;;;;;;;;;5096864;28;20039;-69
2023/07/31 00:47:25;;;;;;;2.38;0.50;;;;;;;;;;5088619;28;20111;-70
2023/07/31 00:49:51;;;;;;;4.22;0.30;;;;;;;;;;5076704;28;20067;-69
2023/07/31 00:52:16;;;;;;;0.57;0.35;;;;;;;;;;5077452;28;20525;-69
2023/07/31 00:54:42;;;;;;;0.68;0.40;;;;;;;;;;5096432;28;20119;-69
2023/07/31 00:57:08;;;;;;;0.32;0.30;;;;;;;;;;5078314;28;20082;-69
2023/07/31 00:59:33;;;;;;;0.55;0.30;;;;;;;;;;5096764;28;20126;-69
2023/07/31 01:01:59;;;;;;;0.38;0.30;;;;;;;;;;5078046;28;20127;-69
2023/07/31 01:04:24;;;;;;;1.08;0.40;;;;;;;;;;5078240;28;20040;-69
2023/07/31 01:07:02;;;;;;;0.25;0.20;;;;;;;;;;5078503;28;20567;-69
2023/07/31 01:09:49;;;;;;;4.03;0.32;;;;;;;;;;5089387;28;20395;-69
2023/07/31 01:12:16;;;;;;;2.90;0.40;;;;;;;;;;5078273;28;20051;-70
2023/07/31 01:15:11;;;;;;;0.45;0.30;;;;;;;;;;5078229;28;20118;-69
2023/07/31 01:17:37;;;;;;;0.43;0.30;;;;;;;;;;5095586;28;20055;-69
2023/07/31 01:20:15;;;;;;;0.75;0.40;;;;;;;;;;5077938;28;20032;-70
2023/07/31 01:23:05;;;;;;;0.40;0.28;;;;;;;;;;5078131;28;20396;-69
2023/07/31 01:25:51;;;;;;;0.40;0.30;;;;;;;;;;5095774;28;20101;-69
2023/07/31 01:28:20;;;;;;;0.45;0.30;;;;;;;;;;5077878;28;20044;-70
2023/07/31 01:30:48;;;;;;;0.40;0.20;;;;;;;;;;5096061;28;20043;-69
2023/07/31 01:33:15;;;;;;;0.20;0.20;;;;;;;;;;5076995;28;20392;-70
2023/07/31 01:35:44;;;;;;;0.45;0.32;;;;;;;;;;5077738;28;20036;-70
2023/07/31 01:38:09;;;;;;;0.60;0.30;;;;;;;;;;5077881;28;20036;-69
2023/07/31 01:40:34;;;;;;;0.40;0.25;;;;;;;;;;5095788;28;20047;-69
2023/07/31 01:43:00;;;;;;;1.02;0.22;;;;;;;;;;5095682;28;20043;-69
2023/07/31 01:45:25;;;;;;;1.75;0.30;;;;;;;;;;5095401;28;20036;-69
2023/07/31 01:47:50;;;;;;;1.27;0.40;;;;;;;;;;5095523;28;20078;-70
2023/07/31 01:50:16;;;;;;;0.70;0.30;;;;;;;;;;5095626;28;20392;-69
2023/07/31 01:52:41;;;;;;;1.02;0.47;;;;;;;;;;5095517;28;20036;-69
2023/07/31 01:55:07;;;;;;;1.20;0.50;;;;;;;;;;5095953;28;20090;-69
2023/07/31 01:57:32;;;;;;;0.65;0.40;;;;;;;;;;5095085;28;20028;-69
2023/07/31 01:59:57;;;;;;;1.10;0.50;;;;;;;;;;5094877;28;20076;-69
2023/07/31 02:02:23;;;;;;;2.90;0.40;;;;;;;;;;5076970;28;20075;-69
2023/07/31 02:04:48;;;;;;;3.65;0.70;;;;;;;;;;5095331;28;20067;-70
2023/07/31 02:07:14;;;;;;;3.83;0.50;;;;;;;;;;5095302;28;20036;-69
2023/07/31 02:09:39;;;;;;;2.40;0.70;;;;;;;;;;5076962;28;20040;-70
2023/07/31 02:12:05;;;;;;;2.78;0.85;;;;;;;;;;5095149;28;20031;-69
2023/07/31 02:14:30;;;;;;;5.72;1.45;;;;;;;;;;5095036;28;20035;-69
2023/07/31 02:16:55;;;;;;;5.40;1.25;;;;;;;;;;5095028;28;20064;-69
2023/07/31 02:19:21;;;;;;;3.55;1.30;;;;;;;;;;5094997;28;20036;-69
2023/07/31 02:21:46;;;;;;;3.38;1.10;;;;;;;;;;5093743;28;20032;-69
2023/07/31 02:24:11;;;;;;;6.28;1.58;;;;;;;;;;5095355;28;20047;-69
2023/07/31 02:26:37;;;;;;;2.70;1.00;;;;;;;;;;5093365;28;20032;-69
2023/07/31 02:29:02;;;;;;;4.70;1.20;;;;;;;;;;5094361;28;20032;-69
2023/07/31 02:31:27;;;;;;;2.92;1.10;;;;;;;;;;5093575;28;20033;-69
2023/07/31 02:33:53;;;;;;;2.28;1.00;;;;;;;;;;5094843;28;20024;-70
2023/07/31 02:36:18;;;;;;;3.45;1.17;;;;;;;;;;5094566;28;20042;-69
2023/07/31 02:38:44;;;;;;;3.67;1.20;;;;;;;;;;5094857;28;20114;-69
2023/07/31 02:41:09;;;;;;;5.18;0.98;;;;;;;;;;5094385;28;20028;-69
2023/07/31 02:43:34;;;;;;;1.77;0.80;;;;;;;;;;5073224;28;20137;-69
2023/07/31 02:46:00;;;;;;;2.55;0.88;;;;;;;;;;5075703;28;20120;-70
2023/07/31 02:48:25;;;;;;;2.10;0.80;;;;;;;;;;5094276;28;20032;-69
2023/07/31 02:50:50;;;;;;;5.03;1.10;;;;;;;;;;5076398;28;20047;-70
2023/07/31 02:53:16;;;;;;;7.95;1.20;;;;;;;;;;5094195;28;20032;-70
2023/07/31 02:55:41;;;;;;;4.97;1.10;;;;;;;;;;5094312;28;20032;-69
2023/07/31 02:58:06;;;;;;;3.42;1.38;;;;;;;;;;5094085;28;20040;-69
2023/07/31 03:00:32;;;;;;;6.82;1.60;;;;;;;;;;5094107;28;20123;-69
2023/07/31 03:02:57;;;;;;;5.95;1.60;;;;;;;;;;5094021;28;20383;-70
2023/07/31 03:05:22;;;;;;;6.53;1.55;;;;;;;;;;5094077;28;20040;-70
2023/07/31 03:07:48;;;;;;;8.70;1.80;;;;;;;;;;5094129;28;20081;-69
2023/07/31 03:10:13;;;;;;;5.03;1.52;;;;;;;;;;5094228;28;20053;-70
2023/07/31 03:12:40;;;;;;;5.63;1.95;;;;;;;;;;5094091;28;20036;-69
2023/07/31 03:15:06;;;;;;;9.45;4.03;;;;;;;;;;5075748;28;20047;-69
2023/07/31 03:17:31;;;;;;;10.68;4.53;;;;;;;;;;5093727;28;20044;-69
2023/07/31 03:19:56;;;;;;;11.43;4.70;;;;;;;;;;5094012;28;20044;-69
2023/07/31 03:22:22;;;;;;;11.55;5.00;;;;;;;;;;5093338;28;20036;-70
2023/07/31 03:24:47;;;;;;;14.50;6.22;;;;;;;;;;5093439;28;20077;-69
2023/07/31 03:27:12;;;;;;;16.67;5.72;;;;;;;;;;5075283;28;20111;-69
2023/07/31 03:29:38;;;;;;;12.80;5.85;;;;;;;;;;5093376;28;20080;-69
2023/07/31 03:32:04;;;;;;;13.82;6.28;;;;;;;;;;5093732;28;20028;-70
2023/07/31 03:34:29;;;;;;;12.75;5.50;;;;;;;;;;5093818;28;20040;-69
2023/07/31 03:36:55;;;;;;;9.18;4.65;;;;;;;;;;5075582;28;20043;-70
2023/07/31 03:39:20;;;;;;;11.60;4.18;;;;;;;;;;5093445;28;20036;-69
2023/07/31 03:41:45;;;;;;;9.60;3.85;;;;;;;;;;5093592;28;20106;-69
2023/07/31 03:44:11;;;;;;;8.75;3.92;;;;;;;;;;5093551;28;20036;-69
2023/07/31 03:46:36;;;;;;;11.77;4.05;;;;;;;;;;5093492;28;20039;-69
2023/07/31 03:49:01;;;;;;;9.88;4.50;;;;;;;;;;5058580;28;20043;-69
2023/07/31 03:51:27;;;;;;;9.75;4.05;;;;;;;;;;5093323;28;20475;-69
2023/07/31 03:53:52;;;;;;;10.82;4.53;;;;;;;;;;5092896;28;20032;-69
2023/07/31 03:56:17;;;;;;;9.50;3.92;;;;;;;;;;5091977;28;20119;-69
2023/07/31 03:58:43;;;;;;;11.85;4.25;;;;;;;;;;5092342;28;20122;-69
2023/07/31 04:01:08;;;;;;;8.13;4.57;;;;;;;;;;5092993;28;20076;-69
2023/07/31 04:03:33;;;;;;;7.07;3.65;;;;;;;;;;5092850;28;20067;-69
2023/07/31 04:05:59;;;;;;;11.07;3.67;;;;;;;;;;5073696;28;20044;-70
2023/07/31 04:08:24;;;;;;;8.25;3.40;;;;;;;;;;5081689;28;20040;-68
2023/07/31 04:10:50;;;;;;;9.75;4.03;;;;;;;;;;5092608;28;20051;-69
2023/07/31 04:13:15;;;;;;;7.97;3.53;;;;;;;;;;5093107;28;20036;-69
2023/07/31 04:15:41;;;;;;;5.68;2.97;;;;;;;;;;5073974;28;20434;-69
2023/07/31 04:18:06;;;;;;;6.80;2.85;;;;;;;;;;5093248;28;20483;-68
2023/07/31 04:20:32;;;;;;;6.15;3.17;;;;;;;;;;5093061;28;20035;-69
2023/07/31 04:22:57;;;;;;;6.13;3.00;;;;;;;;;;5093035;28;20040;-69
2023/07/31 04:25:22;;;;;;;8.77;3.42;;;;;;;;;;5092387;28;20035;-69
2023/07/31 04:27:48;;;;;;;6.75;2.63;;;;;;;;;;5092875;28;20036;-69
2023/07/31 04:30:13;;;;;;;8.30;3.28;;;;;;;;;;5093124;28;20032;-68
2023/07/31 04:32:38;;;;;;;8.43;3.78;;;;;;;;;;5092891;28;20040;-69
2023/07/31 04:35:04;;;;;;;4.88;3.17;;;;;;;;;;5093128;28;20488;-69
2023/07/31 04:37:29;;;;;;;8.00;3.08;;;;;;;;;;5092611;28;20490;-69
2023/07/31 04:39:55;;;;;;;6.28;2.95;;;;;;;;;;5090849;28;20044;-69
2023/07/31 04:42:20;;;;;;;8.95;3.20;;;;;;;;;;5092995;28;20040;-69
2023/07/31 04:44:45;;;;;;;6.80;3.53;;;;;;;;;;5092907;28;20095;-69
2023/07/31 04:47:11;;;;;;;7.20;3.03;;;;;;;;;;5093010;28;20111;-69
2023/07/31 04:49:36;;;;;;;11.68;3.55;;;;;;;;;;5092668;28;20040;-69
2023/07/31 04:52:02;;;;;;;7.78;3.50;;;;;;;;;;5090960;28;20033;-70
2023/07/31 04:54:27;;;;;;;6.85;3.28;;;;;;;;;;5092640;28;20468;-69
2023/07/31 04:56:52;;;;;;;10.60;3.78;;;;;;;;;;5092864;28;20048;-68
2023/07/31 04:59:18;;;;;;;9.38;4.43;;;;;;;;;;5092702;28;20028;-69
2023/07/31 05:01:45;;;;;;;11.35;3.75;;;;;;;;;;5074381;28;20059;-69
2023/07/31 05:04:12;;;;;;;12.07;4.20;;;;;;;;;;5091411;28;20036;-69
2023/07/31 05:06:37;;;;;;;11.18;4.57;;;;;;;;;;5091391;28;20441;-69
2023/07/31 05:09:03;;;;;;;11.70;4.55;;;;;;;;;;5094075;28;20040;-69
2023/07/31 05:11:28;;;;;;;13.10;4.85;;;;;;;;;;5077882;28;20115;-69
2023/07/31 05:13:53;;;;;;;9.38;5.00;;;;;;;;;;5096293;28;20063;-68
2023/07/31 05:16:19;;;;;;;14.73;5.60;;;;;;;;;;5078003;28;20040;-68
2023/07/31 05:18:44;;;;;;;16.70;5.25;;;;;;;;;;5096191;28;20036;-69
2023/07/31 05:21:09;;;;;;;16.30;6.18;;;;;;;;;;5095456;28;20040;-68
2023/07/31 05:23:35;;;;;;;14.68;7.65;;;;;;;;;;5095752;28;20039;-69
2023/07/31 05:26:06;;;;;;;13.85;6.70;;;;;;;;;;5096029;28;20040;-68
2023/07/31 05:28:34;;;;;;;9.32;4.63;;;;;;;;;;5095988;28;20106;-70
2023/07/31 05:31:00;;;;;;;10.55;4.40;;;;;;;;;;5078067;28;20036;-68
2023/07/31 05:33:26;;;;;;;15.75;6.90;;;;;;;;;;5095828;28;20050;-69
2023/07/31 05:35:51;;;;;;;17.33;7.35;;;;;;;;;;5096001;28;20102;-69
2023/07/31 05:38:16;;;;;;;14.27;7.18;;;;;;;;;;5095874;28;20360;-69
2023/07/31 05:40:42;;;;;;;20.63;7.30;;;;;;;;;;5095402;28;20123;-69
2023/07/31 05:43:08;;;;;;;13.07;6.40;;;;;;;;;;5077697;28;20468;-69
2023/07/31 05:45:33;;;;;;;12.90;5.97;;;;;;;;;;5095754;28;20074;-69
2023/07/31 05:47:58;;;;;;;18.15;6.38;;;;;;;;;;5095574;28;20090;-69
2023/07/31 05:50:24;;;;;;;14.93;6.18;;;;;;;;;;5095496;28;20036;-69
2023/07/31 05:52:49;;;;;;;15.30;6.22;;;;;;;;;;5095555;28;20042;-68
2023/07/31 05:55:16;;;;;;;14.15;5.55;;;;;;;;;;5094603;28;20194;-69
2023/07/31 05:57:41;;;;;;;11.18;5.50;;;;;;;;;;5095449;28;20089;-69
2023/07/31 06:00:07;;;;;;;14.82;5.57;;;;;;;;;;5077333;28;20068;-68
2023/07/31 06:02:36;;;;;;;19.42;5.65;;;;;;;;;;5095469;28;20139;-69
2023/07/31 06:05:01;;;;;;;11.10;5.82;;;;;;;;;;5095448;28;20039;-69
2023/07/31 06:07:27;;;;;;;12.75;6.10;;;;;;;;;;5077043;28;20381;-69
2023/07/31 06:09:54;;;;;;;15.48;5.22;;;;;;;;;;5095284;28;20498;-69
2023/07/31 06:12:19;;;;;;;15.07;5.53;;;;;;;;;;5095076;28;20484;-69
2023/07/31 06:14:45;;;;;;;10.43;4.63;;;;;;;;;;5093951;28;20174;-69
2023/07/31 06:17:10;;;;;;;12.98;4.90;;;;;;;;;;5094972;28;20141;-69
2023/07/31 06:19:35;;;;;;;11.07;5.30;;;;;;;;;;5094702;28;20447;-69
2023/07/31 06:22:01;;;;;;;11.07;4.63;;;;;;;;;;5094475;28;20063;-69
2023/07/31 06:24:28;;;;;;;10.00;4.38;;;;;;;;;;5094638;28;20119;-70
2023/07/31 06:26:53;;;;;;;13.15;4.13;;;;;;;;;;5095183;28;20039;-69
2023/07/31 06:29:18;;;;;;;9.93;4.25;;;;;;;;;;5094409;28;20040;-69
2023/07/31 06:31:44;;;;;;;9.68;3.88;;;;;;;;;;5094420;28;20074;-69
2023/07/31 06:34:09;;;;;;;9.15;3.70;;;;;;;;;;5094516;28;20052;-69
2023/07/31 06:36:35;;;;;;;11.20;4.15;;;;;;;;;;5076331;28;20043;-69
2023/07/31 06:39:00;;;;;;;13.35;4.45;;;;;;;;;;5094462;28;20028;-69
2023/07/31 06:41:25;;;;;;;7.50;3.38;;;;;;;;;;5094524;28;20390;-69
2023/07/31 06:43:51;;;;;;;9.40;3.15;;;;;;;;;;5094695;28;20473;-69
2023/07/31 06:46:16;;;;;;;8.18;3.67;;;;;;;;;;5094127;28;20039;-69
2023/07/31 06:48:41;;;;;;;6.75;3.15;;;;;;;;;;5094405;28;20032;-69
2023/07/31 06:51:07;;;;;;;8.13;3.05;;;;;;;;;;5094394;28;20032;-70
2023/07/31 06:53:32;;;;;;;8.43;3.25;;;;;;;;;;5094429;28;20081;-69
2023/07/31 06:55:58;;;;;;;9.95;3.10;;;;;;;;;;5091158;28;20047;-69
2023/07/31 06:58:23;;;;;;;11.38;3.05;;;;;;;;;;5094431;28;20070;-69
2023/07/31 07:00:51;;;;;;;7.40;3.10;;;;;;;;;;5093708;28;20048;-70
2023/07/31 07:03:18;;;;;;;10.13;3.40;;;;;;;;;;5089352;28;20488;-69
2023/07/31 07:05:44;;;;;;;9.35;3.40;;;;;;;;;;5093210;28;20126;-69
2023/07/31 07:08:09;;;;;;;9.13;3.15;;;;;;;;;;5093807;28;20115;-70
2023/07/31 07:10:34;;;;;;;8.18;3.42;;;;;;;;;;5093873;28;20078;-69
2023/07/31 07:12:59;;;;;;;7.18;3.35;;;;;;;;;;5094031;28;20039;-69
2023/07/31 07:15:25;;;;;;;9.73;3.75;;;;;;;;;;5093860;28;20036;-70
2023/07/31 07:17:50;;;;;;;9.38;3.42;;;;;;;;;;5094042;28;20036;-69
2023/07/31 07:20:16;;;;;;;10.30;3.08;;;;;;;;;;5091769;28;20043;-68
2023/07/31 07:22:43;;;;;;;10.95;3.55;;;;;;;;;;5093915;28;20105;-69
2023/07/31 07:25:08;;;;;;;11.25;3.30;;;;;;;;;;5093534;28;20107;-69
2023/07/31 07:27:34;;;;;;;9.52;2.80;;;;;;;;;;5067911;28;20123;-69
2023/07/31 07:29:59;;;;;;;8.40;2.88;;;;;;;;;;5079976;28;20036;-69
2023/07/31 07:32:25;;;;;;;8.45;3.40;;;;;;;;;;5093330;28;20043;-69
2023/07/31 07:34:50;;;;;;;12.73;3.50;;;;;;;;;;5094023;28;20519;-69
2023/07/31 07:37:16;;;;;;;6.68;2.63;;;;;;;;;;5093634;28;20039;-68
2023/07/31 07:39:41;;;;;;;7.07;2.90;;;;;;;;;;5093340;28;20036;-69
2023/07/31 07:42:06;;;;;;;6.50;2.45;;;;;;;;;;5085287;28;20036;-69
2023/07/31 07:44:32;;;;;;;8.63;2.53;;;;;;;;;;5093057;28;20093;-69
2023/07/31 07:46:57;;;;;;;11.40;2.90;;;;;;;;;;5092429;28;20035;-69
2023/07/31 07:49:22;;;;;;;8.02;2.58;;;;;;;;;;5092344;28;20036;-70
2023/07/31 07:51:48;;;;;;;9.13;2.30;;;;;;;;;;5093473;28;20134;-68
2023/07/31 07:54:14;;;;;;;6.47;2.72;;;;;;;;;;5091451;28;20093;-69
2023/07/31 07:56:39;;;;;;;9.90;2.70;;;;;;;;;;5093117;28;20127;-69
2023/07/31 07:59:05;;;;;;;9.27;3.17;;;;;;;;;;5091844;28;20047;-69
2023/07/31 08:01:30;;;;;;;8.38;2.50;;;;;;;;;;5092876;28;20044;-69
2023/07/31 08:03:55;;;;;;;7.47;2.88;;;;;;;;;;5092986;28;20028;-69
2023/07/31 08:06:22;;;;;;;6.93;2.38;;;;;;;;;;5092863;28;20110;-69
2023/07/31 08:08:47;;;;;;;10.27;2.10;;;;;;;;;;5092941;28;20057;-69
2023/07/31 08:11:13;;;;;;;7.72;2.70;;;;;;;;;;5092870;28;20028;-69
2023/07/31 08:13:38;;;;;;;8.30;2.30;;;;;;;;;;5092413;28;20115;-69
2023/07/31 08:16:04;;;;;;;10.57;2.38;;;;;;;;;;5093006;28;20062;-68
2023/07/31 08:18:31;;;;;;;7.70;2.58;;;;;;;;;;5081766;28;20028;-69
2023/07/31 08:20:56;;;;;;;8.68;2.25;;;;;;;;;;5068611;28;20074;-69
2023/07/31 08:23:21;;;;;;;6.05;2.50;;;;;;;;;;5091151;28;20036;-69
2023/07/31 08:25:46;;;;;;;8.40;2.20;;;;;;;;;;5091238;28;20040;-69
2023/07/31 08:28:12;;;;;;;9.18;2.13;;;;;;;;;;5091016;28;20024;-70
2023/07/31 08:30:37;;;;;;;6.28;2.13;;;;;;;;;;5080832;28;20028;-68
2023/07/31 08:33:02;;;;;;;7.25;2.30;;;;;;;;;;5073178;28;20089;-70
2023/07/31 08:35:28;;;;;;;6.88;2.20;;;;;;;;;;5075344;28;20035;-69
2023/07/31 08:37:53;;;;;;;8.57;2.17;;;;;;;;;;5087736;28;20055;-69
2023/07/31 08:40:19;;;;;;;9.40;2.50;;;;;;;;;;5085996;28;20044;-69
2023/07/31 08:42:48;;;;;;;8.30;2.33;;;;;;;;;;5071822;28;20044;-69
2023/07/31 08:45:15;;;;;;;10.80;3.05;;;;;;;;;;5071941;28;20024;-69
2023/07/31 08:47:44;;;;;;;7.10;2.90;;;;;;;;;;5090783;28;20036;-69
2023/07/31 08:50:12;;;;;;;7.97;2.60;;;;;;;;;;5090715;28;20035;-69
2023/07/31 08:52:37;;;;;;;7.18;2.95;;;;;;;;;;5091117;28;20035;-70
2023/07/31 08:55:02;;;;;;;10.32;2.67;;;;;;;;;;5092331;28;20178;-69
2023/07/31 08:57:28;;;;;;;10.25;2.70;;;;;;;;;;5073782;28;20390;-69
2023/07/31 08:59:54;;;;;;;7.22;3.05;;;;;;;;;;5091178;28;20122;-69
2023/07/31 09:02:20;;;;;;;7.30;2.85;;;;;;;;;;5091433;28;20052;-69
2023/07/31 09:04:45;;;;;;;9.82;3.05;;;;;;;;;;5073555;28;20040;-69
2023/07/31 09:07:13;;;;;;;9.25;2.95;;;;;;;;;;5092536;28;20032;-69
2023/07/31 09:09:38;;;;;;;15.70;3.70;;;;;;;;;;5073567;28;20044;-69
2023/07/31 09:12:04;;;;;;;9.25;3.22;;;;;;;;;;5091962;28;20043;-69
2023/07/31 09:14:29;;;;;;;15.20;4.15;;;;;;;;;;5072765;28;20040;-69
2023/07/31 09:16:56;;;;;;;9.30;3.92;;;;;;;;;;5091829;28;20043;-68
2023/07/31 09:19:27;;;;;;;10.57;4.38;;;;;;;;;;5073380;28;20043;-70
2023/07/31 09:21:52;;;;;;;9.05;3.78;;;;;;;;;;5091653;28;20387;-69
2023/07/31 09:24:38;;;;;;;10.30;4.00;;;;;;;;;;5091752;28;20036;-69
2023/07/31 09:27:03;;;;;;;10.55;4.43;;;;;;;;;;5090659;28;20048;-69
2023/07/31 09:29:29;;;;;;;13.90;4.53;;;;;;;;;;5091083;28;20437;-70
2023/07/31 09:31:55;;;;;;;11.02;4.10;;;;;;;;;;5073894;28;20039;-69
2023/07/31 09:34:28;;;;;;;11.40;4.35;;;;;;;;;;5090969;28;20292;-69
2023/07/31 09:36:54;;;;;;;;;;;;;;;;;;5089712;28;20039;-69
2023/07/31 09:39:22;;;;;;;11.70;4.05;;;;;;;;;;5091775;28;20394;-69
2023/07/31 09:41:54;;;;;;;13.57;4.75;;;;;;;;;;5091196;28;20031;-69
2023/07/31 09:44:20;;;;;;;11.57;5.45;;;;;;;;;;5072940;28;20055;-69
2023/07/31 09:46:45;;;;;;;10.45;4.78;;;;;;;;;;5090718;28;20064;-69
2023/07/31 09:49:12;;;;;;;10.15;4.50;;;;;;;;;;5072899;28;20544;-69
2023/07/31 09:51:38;;;;;;;13.73;4.97;;;;;;;;;;5073510;28;20055;-69
2023/07/31 09:54:10;;;;;;;12.70;4.75;;;;;;;;;;5072833;28;20464;-70
2023/07/31 09:56:37;;;;;;;16.27;5.70;;;;;;;;;;5078957;28;20043;-69
2023/07/31 09:59:04;;;;;;;14.65;5.85;;;;;;;;;;5070767;28;20423;-69
2023/07/31 10:01:30;;;;;;;12.82;5.03;;;;;;;;;;5072025;28;20040;-69
2023/07/31 10:03:56;;;;;;;12.98;4.55;;;;;;;;;;5091596;28;20081;-69
2023/07/31 10:06:22;;;;;;;13.98;5.63;;;;;;;;;;5090890;28;20040;-69
2023/07/31 10:08:49;;;;;;;18.75;5.18;;;;;;;;;;5073616;28;20115;-69
2023/07/31 10:11:15;;;;;;;14.43;5.05;;;;;;;;;;5061765;28;20345;-69
2023/07/31 10:13:41;;;;;;;12.75;5.18;;;;;;;;;;5089429;28;20119;-69
2023/07/31 10:16:07;;;;;;;10.15;4.53;;;;;;;;;;5089456;28;20114;-69
2023/07/31 10:18:33;;;;;;;10.85;4.80;;;;;;;;;;5072128;28;20039;-69
2023/07/31 10:20:59;;;;;;;17.65;4.88;;;;;;;;;;5090447;28;20043;-70
2023/07/31 10:23:27;;;;;;;11.20;4.15;;;;;;;;;;5089006;28;20028;-68
2023/07/31 10:25:53;;;;;;;14.60;4.57;;;;;;;;;;5081813;28;20051;-69
2023/07/31 10:28:18;;;;;;;13.55;4.47;;;;;;;;;;5090913;28;20044;-69
2023/07/31 10:30:44;;;;;;;18.35;5.00;;;;;;;;;;5089206;28;20059;-69
2023/07/31 10:33:09;;;;;;;11.80;4.93;;;;;;;;;;5090818;28;20031;-69
2023/07/31 10:35:35;;;;;;;10.77;4.45;;;;;;;;;;5073104;28;20173;-69
2023/07/31 10:38:13;;;;;;;10.73;3.90;;;;;;;;;;5090951;28;20028;-69
2023/07/31 10:40:39;;;;;;;9.15;3.95;;;;;;;;;;5073144;28;20075;-69
2023/07/31 10:43:05;;;;;;;16.38;4.63;;;;;;;;;;5072633;28;20123;-69
2023/07/31 10:45:33;;;;;;;13.77;3.95;;;;;;;;;;5059195;28;20071;-69
2023/07/31 10:48:02;;;;;;;14.43;5.10;;;;;;;;;;5089476;28;20036;-69
2023/07/31 10:50:29;;;;;;;17.65;4.20;;;;;;;;;;5061572;28;20380;-68
2023/07/31 10:52:56;;;;;;;10.02;3.63;;;;;;;;;;5071856;28;20046;-69
2023/07/31 10:55:28;;;;;;;11.63;3.95;;;;;;;;;;5089746;28;20119;-69
2023/07/31 10:57:56;;;;;;;14.97;4.13;;;;;;;;;;5079001;28;20038;-69
2023/07/31 11:00:33;;;;;;;13.07;4.50;;;;;;;;;;5089866;28;20269;-69
2023/07/31 11:03:05;;;;;;;11.05;3.95;;;;;;;;;;5087971;28;20039;-69
2023/07/31 11:05:55;;;;;;;20.52;4.55;;;;;;;;;;5075131;28;20036;-70
2023/07/31 11:08:27;;;;;;;17.05;4.00;;;;;;;;;;5088959;28;20028;-69
2023/07/31 11:11:02;;;;;;;20.45;4.72;;;;;;;;;;5075219;28;20089;-69
2023/07/31 11:13:51;;;;;;;11.35;3.30;;;;;;;;;;5087051;28;20028;-69
2023/07/31 11:16:18;;;;;;;11.68;3.42;;;;;;;;;;5080626;28;20039;-68
2023/07/31 11:18:45;;;;;;;12.45;3.85;;;;;;;;;;5088194;28;20028;-69
2023/07/31 11:21:19;;;;;;;14.15;3.53;;;;;;;;;;5070848;28;20102;-69
2023/07/31 11:23:49;;;;;;;15.82;3.83;;;;;;;;;;5070915;28;20036;-69
2023/07/31 11:26:14;;;;;;;13.10;3.60;;;;;;;;;;5070952;28;20040;-69
2023/07/31 11:28:42;;;;;;;13.63;4.18;;;;;;;;;;5071351;28;20040;-69
2023/07/31 11:31:09;;;;;;;15.27;3.85;;;;;;;;;;5089401;28;20070;-69
2023/07/31 11:33:34;;;;;;;13.27;4.30;;;;;;;;;;5071210;28;20044;-68
2023/07/31 11:36:00;;;;;;;9.65;3.40;;;;;;;;;;5089172;28;20035;-68
2023/07/31 11:38:30;;;;;;;12.65;3.85;;;;;;;;;;5088876;28;20123;-69
2023/07/31 11:40:59;;;;;;;19.58;4.30;;;;;;;;;;5070296;28;20131;-69
2023/07/31 11:43:24;;;;;;;16.27;4.10;;;;;;;;;;5086677;28;20047;-69
2023/07/31 11:45:51;;;;;;;14.25;3.92;;;;;;;;;;5088569;28;20052;-69
2023/07/31 11:48:24;;;;;;;15.80;3.83;;;;;;;;;;5089091;28;20032;-69
2023/07/31 11:50:51;;;;;;;15.95;4.07;;;;;;;;;;5090100;28;20085;-69
2023/07/31 11:53:21;;;;;;;10.27;3.38;;;;;;;;;;5087861;28;20032;-69
2023/07/31 11:55:47;;;;;;;15.73;4.22;;;;;;;;;;5089265;28;20487;-69
2023/07/31 11:58:14;;;;;;;13.05;3.70;;;;;;;;;;5089723;28;20488;-69
2023/07/31 12:00:39;;;;;;;14.60;4.35;;;;;;;;;;5088920;28;20047;-69
2023/07/31 12:03:05;;;;;;;16.50;4.47;;;;;;;;;;5071212;28;20494;-69
2023/07/31 12:05:30;;;;;;;18.50;4.00;;;;;;;;;;5071449;28;20088;-70
2023/07/31 12:07:55;;;;;;;11.68;3.60;;;;;;;;;;5071959;28;20105;-69
2023/07/31 12:10:29;;;;;;;13.95;3.70;;;;;;;;;;5086212;28;20039;-69
2023/07/31 12:13:08;;;;;;;17.00;3.97;;;;;;;;;;5076527;28;20428;-69
2023/07/31 12:15:38;;;;;;;17.83;4.22;;;;;;;;;;5087378;28;20048;-70
2023/07/31 12:18:05;;;;;;;17.35;4.03;;;;;;;;;;5076560;28;20495;-69
2023/07/31 12:20:31;;;;;;;15.48;3.65;;;;;;;;;;5091883;28;20071;-70
2023/07/31 12:22:58;;;;;;;15.85;4.03;;;;;;;;;;5083537;28;20035;-70
2023/07/31 12:25:28;;;;;;;19.48;4.35;;;;;;;;;;5074612;28;20033;-69
2023/07/31 12:27:54;;;;;;;14.57;3.50;;;;;;;;;;5094241;28;20128;-71
2023/07/31 12:30:29;;;;;;;16.23;3.78;;;;;;;;;;5093092;28;20110;-69
2023/07/31 12:32:54;;;;;;;15.25;3.70;;;;;;;;;;5092961;28;20044;-69
2023/07/31 12:35:19;;;;;;;13.40;3.30;;;;;;;;;;5067944;28;20036;-70
2023/07/31 12:37:45;;;;;;;13.48;3.35;;;;;;;;;;5097397;28;20048;-69
2023/07/31 12:40:11;;;;;;;7.43;3.20;;;;;;;;;;5092502;28;20043;-69
2023/07/31 12:42:36;;;;;;;17.48;4.22;;;;;;;;;;5092774;28;20134;-69
2023/07/31 12:45:01;;;;;;;16.02;3.90;;;;;;;;;;5091899;28;20453;-69
2023/07/31 12:47:27;;;;;;;11.90;3.83;;;;;;;;;;5093420;28;20067;-70
2023/07/31 12:49:52;;;;;;;13.20;3.67;;;;;;;;;;5089209;28;20487;-69
2023/07/31 12:52:17;;;;;;;19.10;4.20;;;;;;;;;;5086758;28;20542;-69
2023/07/31 12:54:43;;;;;;;19.65;4.38;;;;;;;;;;5089242;28;20467;-69
2023/07/31 12:57:08;;;;;;;16.67;4.50;;;;;;;;;;5075223;28;20885;-70
2023/07/31 12:59:34;;;;;;;12.48;3.80;;;;;;;;;;5069894;28;20114;-70
2023/07/31 13:01:59;;;;;;;18.88;3.95;;;;;;;;;;5074505;28;20532;-68
2023/07/31 13:04:24;;;;;;;15.38;4.05;;;;;;;;;;5084545;28;20582;-69
2023/07/31 13:06:50;;;;;;;19.20;4.07;;;;;;;;;;5091948;28;20036;-69
2023/07/31 13:09:17;;;;;;;17.42;4.38;;;;;;;;;;5083717;28;20043;-70
2023/07/31 13:11:42;;;;;;;14.90;3.97;;;;;;;;;;5091320;28;20082;-70
2023/07/31 13:14:08;;;;;;;23.88;4.28;;;;;;;;;;5090320;28;20063;-69
2023/07/31 13:16:33;;;;;;;14.10;4.15;;;;;;;;;;5090675;28;20775;-68
2023/07/31 13:18:58;;;;;;;14.82;3.88;;;;;;;;;;5078022;28;20189;-69
2023/07/31 13:21:24;;;;;;;14.80;3.85;;;;;;;;;;5090952;28;20036;-68
2023/07/31 13:23:49;;;;;;;15.50;3.95;;;;;;;;;;5090982;28;20047;-69
2023/07/31 13:26:15;;;;;;;21.95;5.15;;;;;;;;;;5091763;28;20126;-69
2023/07/31 13:28:40;;;;;;;18.52;4.28;;;;;;;;;;5091702;28;20039;-69
2023/07/31 13:31:05;;;;;;;12.50;3.70;;;;;;;;;;5090199;28;20098;-69
2023/07/31 13:33:31;;;;;;;15.68;4.32;;;;;;;;;;5090494;28;20042;-69
2023/07/31 13:35:57;;;;;;;20.08;4.07;;;;;;;;;;5092941;28;20032;-69
2023/07/31 13:38:22;;;;;;;18.05;3.72;;;;;;;;;;5092485;28;20074;-69
2023/07/31 13:40:48;;;;;;;15.98;3.35;;;;;;;;;;5091402;28;20499;-69
2023/07/31 13:43:13;;;;;;;14.02;3.45;;;;;;;;;;5090852;28;20035;-69
2023/07/31 13:45:38;;;;;;;14.02;4.05;;;;;;;;;;5091533;28;20101;-70
2023/07/31 13:48:04;;;;;;;14.70;4.30;;;;;;;;;;5091303;28;20032;-70
2023/07/31 13:50:29;;;;;;;17.63;3.78;;;;;;;;;;5090191;28;20089;-69
2023/07/31 13:52:55;;;;;;;15.02;4.45;;;;;;;;;;5091508;28;20042;-69
2023/07/31 13:55:21;;;;;;;10.88;3.33;;;;;;;;;;5091558;28;20032;-69
2023/07/31 13:57:46;;;;;;;13.80;3.90;;;;;;;;;;5091636;28;20036;-69
2023/07/31 14:00:13;;;;;;;15.23;3.95;;;;;;;;;;5091183;28;20440;-69
2023/07/31 14:02:38;;;;;;;13.30;4.35;;;;;;;;;;5091852;28;20051;-69
2023/07/31 14:05:04;;;;;;;20.52;4.60;;;;;;;;;;5091861;28;20407;-69
2023/07/31 14:07:29;;;;;;;18.67;4.65;;;;;;;;;;5091206;28;20036;-69
2023/07/31 14:09:55;;;;;;;16.90;4.38;;;;;;;;;;5091491;28;20035;-69
2023/07/31 14:12:20;;;;;;;11.73;3.78;;;;;;;;;;5091339;28;20398;-69
2023/07/31 14:14:45;;;;;;;13.57;4.43;;;;;;;;;;5091092;28;20048;-69
2023/07/31 14:17:11;;;;;;;14.77;3.83;;;;;;;;;;5091412;28;20024;-69
2023/07/31 14:19:36;;;;;;;15.98;4.75;;;;;;;;;;5091142;28;20456;-69
2023/07/31 14:22:01;;;;;;;14.48;4.25;;;;;;;;;;5091407;28;20500;-69
2023/07/31 14:24:27;;;;;;;14.48;5.43;;;;;;;;;;5091009;28;20020;-69
2023/07/31 14:26:53;;;;;;;16.80;4.30;;;;;;;;;;5091682;28;20027;-69
2023/07/31 14:29:19;;;;;;;14.60;4.28;;;;;;;;;;5090935;28;20036;-68
2023/07/31 14:31:45;;;;;;;11.52;4.30;;;;;;;;;;5090284;28;20032;-69